Peterculter, United Kingdom
Current Conditions -  °F | °C
As of 6:50 AM on Monday 24 Nov 2014 (Local Time) from EGPD Reporting Station
Clear Clear  
Wind Chill: 38°   Ceiling: Unl
Heat Index: 45°   Visibility: 6mi
Dew Point: 37°   Wind: 13mph
Humidity: 76%   Direction: 300°WNW
Pressure: 30.03"   Gusts: NA
Location:  57.1°N, 2.27°W
Report Text: EGPD 240650Z 30011KT 240V340 CAVOK 07/03 Q1017 NOSIG
Loading
Personal Weather Stations






























Interactive Weather Map New forecast layout! Learn more

10-Day Weather Forecast

Advertisements
Track Severe Weather on mobile